sensor_id;sensor_type;location;lat;lon;timestamp;temperature;humidity
79571;DHT22;69034;49.444;7.758;2023-07-13T00:03:15;22.20;43.70
79571;DHT22;69034;49.444;7.758;2023-07-13T00:07:16;22.10;43.80
79571;DHT22;69034;49.444;7.758;2023-07-13T00:11:20;22.00;44.00
79571;DHT22;69034;49.444;7.758;2023-07-13T00:15:23;21.90;44.20
79571;DHT22;69034;49.444;7.758;2023-07-13T00:19:25;21.80;44.40
79571;DHT22;69034;49.444;7.758;2023-07-13T00:23:26;21.70;44.70
79571;DHT22;69034;49.444;7.758;2023-07-13T00:27:26;21.70;44.80
79571;DHT22;69034;49.444;7.758;2023-07-13T00:31:27;21.60;44.70
79571;DHT22;69034;49.444;7.758;2023-07-13T00:35:30;21.40;45.00
79571;DHT22;69034;49.444;7.758;2023-07-13T00:39:31;21.30;45.30
79571;DHT22;69034;49.444;7.758;2023-07-13T00:43:32;21.10;45.70
79571;DHT22;69034;49.444;7.758;2023-07-13T00:47:34;21.00;46.10
79571;DHT22;69034;49.444;7.758;2023-07-13T00:51:40;20.90;46.40
79571;DHT22;69034;49.444;7.758;2023-07-13T00:55:43;20.80;46.70
79571;DHT22;69034;49.444;7.758;2023-07-13T00:59:49;20.70;47.00
79571;DHT22;69034;49.444;7.758;2023-07-13T01:03:51;20.60;47.40
79571;DHT22;69034;49.444;7.758;2023-07-13T01:07:52;20.40;47.80
79571;DHT22;69034;49.444;7.758;2023-07-13T01:11:53;20.30;48.00
79571;DHT22;69034;49.444;7.758;2023-07-13T01:15:58;20.20;48.30
79571;DHT22;69034;49.444;7.758;2023-07-13T01:20:00;20.10;48.40
79571;DHT22;69034;49.444;7.758;2023-07-13T01:24:00;20.10;48.40
79571;DHT22;69034;49.444;7.758;2023-07-13T01:28:04;20.00;48.80
79571;DHT22;69034;49.444;7.758;2023-07-13T01:32:05;19.90;48.90
79571;DHT22;69034;49.444;7.758;2023-07-13T01:36:10;19.90;49.10
79571;DHT22;69034;49.444;7.758;2023-07-13T01:40:12;19.90;49.40
79571;DHT22;69034;49.444;7.758;2023-07-13T01:44:13;19.80;49.70
79571;DHT22;69034;49.444;7.758;2023-07-13T01:48:14;19.70;49.80
79571;DHT22;69034;49.444;7.758;2023-07-13T01:52:15;19.80;49.70
79571;DHT22;69034;49.444;7.758;2023-07-13T01:56:17;19.80;49.70
79571;DHT22;69034;49.444;7.758;2023-07-13T02:00:18;19.70;50.00
79571;DHT22;69034;49.444;7.758;2023-07-13T02:04:18;19.60;50.30
79571;DHT22;69034;49.444;7.758;2023-07-13T02:08:19;19.50;50.50
79571;DHT22;69034;49.444;7.758;2023-07-13T02:12:20;19.60;50.40
79571;DHT22;69034;49.444;7.758;2023-07-13T02:16:20;19.60;50.40
79571;DHT22;69034;49.444;7.758;2023-07-13T02:20:21;19.70;50.40
79571;DHT22;69034;49.444;7.758;2023-07-13T02:24:22;19.80;50.20
79571;DHT22;69034;49.444;7.758;2023-07-13T02:28:23;19.90;50.20
79571;DHT22;69034;49.444;7.758;2023-07-13T02:32:26;20.00;50.00
79571;DHT22;69034;49.444;7.758;2023-07-13T02:36:26;20.20;49.90
79571;DHT22;69034;49.444;7.758;2023-07-13T02:40:27;20.20;49.90
79571;DHT22;69034;49.444;7.758;2023-07-13T02:44:28;20.20;49.90
79571;DHT22;69034;49.444;7.758;2023-07-13T02:48:28;20.30;49.80
79571;DHT22;69034;49.444;7.758;2023-07-13T02:52:29;20.40;49.80
79571;DHT22;69034;49.444;7.758;2023-07-13T02:56:31;20.30;49.90
79571;DHT22;69034;49.444;7.758;2023-07-13T03:00:32;20.30;50.00
79571;DHT22;69034;49.444;7.758;2023-07-13T03:04:34;20.30;50.00
79571;DHT22;69034;49.444;7.758;2023-07-13T03:08:35;20.30;50.00
79571;DHT22;69034;49.444;7.758;2023-07-13T03:12:40;20.30;50.00
79571;DHT22;69034;49.444;7.758;2023-07-13T03:16:41;20.30;50.20
79571;DHT22;69034;49.444;7.758;2023-07-13T03:20:41;20.20;50.30
79571;DHT22;69034;49.444;7.758;2023-07-13T03:24:42;20.20;50.40
79571;DHT22;69034;49.444;7.758;2023-07-13T03:28:45;20.20;50.30
79571;DHT22;69034;49.444;7.758;2023-07-13T03:32:46;20.10;50.50
79571;DHT22;69034;49.444;7.758;2023-07-13T03:36:46;19.90;50.70
79571;DHT22;69034;49.444;7.758;2023-07-13T03:40:47;19.80;50.80
79571;DHT22;69034;49.444;7.758;2023-07-13T03:44:48;19.70;51.00
79571;DHT22;69034;49.444;7.758;2023-07-13T03:48:52;19.60;51.20
79571;DHT22;69034;49.444;7.758;2023-07-13T03:52:53;19.50;51.50
79571;DHT22;69034;49.444;7.758;2023-07-13T03:56:53;19.40;51.80
79571;DHT22;69034;49.444;7.758;2023-07-13T04:00:56;19.30;51.90
79571;DHT22;69034;49.444;7.758;2023-07-13T04:04:57;19.40;51.90
79571;DHT22;69034;49.444;7.758;2023-07-13T04:09:00;19.30;52.10
79571;DHT22;69034;49.444;7.758;2023-07-13T04:13:01;19.30;52.50
79571;DHT22;69034;49.444;7.758;2023-07-13T04:17:02;19.10;53.00
79571;DHT22;69034;49.444;7.758;2023-07-13T04:21:03;19.10;53.30
79571;DHT22;69034;49.444;7.758;2023-07-13T04:25:04;19.00;53.40
79571;DHT22;69034;49.444;7.758;2023-07-13T04:29:08;19.00;53.50
79571;DHT22;69034;49.444;7.758;2023-07-13T04:33:08;19.00;54.40
79571;DHT22;69034;49.444;7.758;2023-07-13T04:37:09;18.90;54.90
79571;DHT22;69034;49.444;7.758;2023-07-13T04:41:16;19.00;54.50
79571;DHT22;69034;49.444;7.758;2023-07-13T04:45:17;19.00;54.60
79571;DHT22;69034;49.444;7.758;2023-07-13T04:49:19;19.00;54.50
79571;DHT22;69034;49.444;7.758;2023-07-13T04:53:20;19.20;54.00
79571;DHT22;69034;49.444;7.758;2023-07-13T04:57:22;19.20;54.10
79571;DHT22;69034;49.444;7.758;2023-07-13T05:01:23;19.20;54.40
79571;DHT22;69034;49.444;7.758;2023-07-13T05:05:26;19.20;54.40
79571;DHT22;69034;49.444;7.758;2023-07-13T05:09:26;19.20;54.40
79571;DHT22;69034;49.444;7.758;2023-07-13T05:13:29;19.30;54.00
79571;DHT22;69034;49.444;7.758;2023-07-13T05:17:30;19.50;53.80
79571;DHT22;69034;49.444;7.758;2023-07-13T05:21:30;19.70;53.50
79571;DHT22;69034;49.444;7.758;2023-07-13T05:25:31;19.90;53.30
79571;DHT22;69034;49.444;7.758;2023-07-13T05:29:32;20.20;53.00
79571;DHT22;69034;49.444;7.758;2023-07-13T05:33:32;20.40;52.80
79571;DHT22;69034;49.444;7.758;2023-07-13T05:37:37;20.70;52.50
79571;DHT22;69034;49.444;7.758;2023-07-13T05:41:39;20.70;52.40
79571;DHT22;69034;49.444;7.758;2023-07-13T05:45:40;20.80;52.40
79571;DHT22;69034;49.444;7.758;2023-07-13T05:49:41;21.00;52.10
79571;DHT22;69034;49.444;7.758;2023-07-13T05:53:42;21.00;52.00
79571;DHT22;69034;49.444;7.758;2023-07-13T05:57:42;21.40;51.50
79571;DHT22;69034;49.444;7.758;2023-07-13T06:01:43;21.80;50.80
79571;DHT22;69034;49.444;7.758;2023-07-13T06:05:45;22.20;50.20
79571;DHT22;69034;49.444;7.758;2023-07-13T06:09:45;22.50;49.60
79571;DHT22;69034;49.444;7.758;2023-07-13T06:13:47;22.90;49.10
79571;DHT22;69034;49.444;7.758;2023-07-13T06:17:48;23.30;48.40
79571;DHT22;69034;49.444;7.758;2023-07-13T06:21:48;23.70;47.70
79571;DHT22;69034;49.444;7.758;2023-07-13T06:25:49;24.10;47.00
79571;DHT22;69034;49.444;7.758;2023-07-13T06:29:50;24.40;46.40
79571;DHT22;69034;49.444;7.758;2023-07-13T06:33:50;24.70;45.60
79571;DHT22;69034;49.444;7.758;2023-07-13T06:37:51;24.70;45.00
79571;DHT22;69034;49.444;7.758;2023-07-13T06:41:52;24.70;44.80
79571;DHT22;69034;49.444;7.758;2023-07-13T06:45:55;24.90;44.10
79571;DHT22;69034;49.444;7.758;2023-07-13T06:49:56;25.00;43.70
79571;DHT22;69034;49.444;7.758;2023-07-13T06:53:59;25.50;42.90
79571;DHT22;69034;49.444;7.758;2023-07-13T06:58:00;26.00;42.30
79571;DHT22;69034;49.444;7.758;2023-07-13T07:02:00;26.20;42.40
79571;DHT22;69034;49.444;7.758;2023-07-13T07:06:06;26.10;42.10
79571;DHT22;69034;49.444;7.758;2023-07-13T07:10:11;26.10;41.80
79571;DHT22;69034;49.444;7.758;2023-07-13T07:14:11;26.20;40.90
79571;DHT22;69034;49.444;7.758;2023-07-13T07:18:14;26.30;40.50
79571;DHT22;69034;49.444;7.758;2023-07-13T07:22:15;26.50;39.50
79571;DHT22;69034;49.444;7.758;2023-07-13T07:26:16;26.50;39.80
79571;DHT22;69034;49.444;7.758;2023-07-13T07:30:16;26.60;39.30
79571;DHT22;69034;49.444;7.758;2023-07-13T07:34:17;26.70;39.10
79571;DHT22;69034;49.444;7.758;2023-07-13T07:38:18;27.20;38.90
79571;DHT22;69034;49.444;7.758;2023-07-13T07:42:18;27.90;38.20
79571;DHT22;69034;49.444;7.758;2023-07-13T07:46:19;28.40;37.50
79571;DHT22;69034;49.444;7.758;2023-07-13T07:50:20;29.00;37.10
79571;DHT22;69034;49.444;7.758;2023-07-13T07:54:20;29.60;36.40
79571;DHT22;69034;49.444;7.758;2023-07-13T07:58:21;29.80;35.90
79571;DHT22;69034;49.444;7.758;2023-07-13T08:02:21;30.00;35.40
79571;DHT22;69034;49.444;7.758;2023-07-13T08:06:22;30.00;35.00
79571;DHT22;69034;49.444;7.758;2023-07-13T08:10:26;30.20;34.30
79571;DHT22;69034;49.444;7.758;2023-07-13T08:14:27;30.60;33.50
79571;DHT22;69034;49.444;7.758;2023-07-13T08:18:27;30.50;33.50
79571;DHT22;69034;49.444;7.758;2023-07-13T08:22:28;30.40;33.10
79571;DHT22;69034;49.444;7.758;2023-07-13T08:26:29;30.80;32.70
79571;DHT22;69034;49.444;7.758;2023-07-13T08:30:30;31.20;32.30
79571;DHT22;69034;49.444;7.758;2023-07-13T08:34:30;31.30;32.00
79571;DHT22;69034;49.444;7.758;2023-07-13T08:38:31;31.60;31.60
79571;DHT22;69034;49.444;7.758;2023-07-13T08:42:37;31.80;31.40
79571;DHT22;69034;49.444;7.758;2023-07-13T08:46:40;32.10;31.00
79571;DHT22;69034;49.444;7.758;2023-07-13T08:55:18;32.50;30.60
79571;DHT22;69034;49.444;7.758;2023-07-13T08:59:24;32.60;30.40
79571;DHT22;69034;49.444;7.758;2023-07-13T09:03:31;32.60;30.60
79571;DHT22;69034;49.444;7.758;2023-07-13T09:16:37;33.70;28.50
79571;DHT22;69034;49.444;7.758;2023-07-13T09:29:10;34.60;27.20
79571;DHT22;69034;49.444;7.758;2023-07-13T09:33:15;34.80;27.20
79571;DHT22;69034;49.444;7.758;2023-07-13T09:37:17;35.00;26.90
79571;DHT22;69034;49.444;7.758;2023-07-13T09:41:33;34.80;27.00
79571;DHT22;69034;49.444;7.758;2023-07-13T09:45:37;34.60;26.60
79571;DHT22;69034;49.444;7.758;2023-07-13T09:49:37;34.30;26.90
79571;DHT22;69034;49.444;7.758;2023-07-13T09:53:38;34.00;26.40
79571;DHT22;69034;49.444;7.758;2023-07-13T09:57:47;34.10;26.00
79571;DHT22;69034;49.444;7.758;2023-07-13T10:01:47;34.10;25.80
79571;DHT22;69034;49.444;7.758;2023-07-13T10:05:50;34.30;25.20
79571;DHT22;69034;49.444;7.758;2023-07-13T10:09:53;34.60;25.10
79571;DHT22;69034;49.444;7.758;2023-07-13T10:14:16;35.70;24.70
79571;DHT22;69034;49.444;7.758;2023-07-13T10:18:20;36.30;24.30
79571;DHT22;69034;49.444;7.758;2023-07-13T10:22:29;37.20;19.70
79571;DHT22;69034;49.444;7.758;2023-07-13T10:26:34;38.10;19.20
79571;DHT22;69034;49.444;7.758;2023-07-13T10:30:39;38.60;18.70
79571;DHT22;69034;49.444;7.758;2023-07-13T10:34:44;38.90;18.60
79571;DHT22;69034;49.444;7.758;2023-07-13T10:38:48;39.40;17.10
79571;DHT22;69034;49.444;7.758;2023-07-13T10:42:51;37.50;19.10
79571;DHT22;69034;49.444;7.758;2023-07-13T10:47:00;38.90;17.00
79571;DHT22;69034;49.444;7.758;2023-07-13T10:51:02;36.70;18.80
79571;DHT22;69034;49.444;7.758;2023-07-13T10:55:04;35.70;19.60
79571;DHT22;69034;49.444;7.758;2023-07-13T10:59:10;35.50;19.50
79571;DHT22;69034;49.444;7.758;2023-07-13T11:03:15;34.90;19.50
79571;DHT22;69034;49.444;7.758;2023-07-13T11:07:28;34.50;19.90
79571;DHT22;69034;49.444;7.758;2023-07-13T11:15:43;34.70;19.40
79571;DHT22;69034;49.444;7.758;2023-07-13T11:19:44;36.30;19.60
79571;DHT22;69034;49.444;7.758;2023-07-13T11:24:19;37.30;18.00
79571;DHT22;69034;49.444;7.758;2023-07-13T11:28:25;36.40;19.60
79571;DHT22;69034;49.444;7.758;2023-07-13T11:32:30;37.30;18.40
79571;DHT22;69034;49.444;7.758;2023-07-13T11:36:36;38.90;17.70
79571;DHT22;69034;49.444;7.758;2023-07-13T11:40:39;40.40;16.50
79571;DHT22;69034;49.444;7.758;2023-07-13T11:44:48;38.10;17.30
79571;DHT22;69034;49.444;7.758;2023-07-13T11:48:49;37.10;18.10
79571;DHT22;69034;49.444;7.758;2023-07-13T11:52:54;36.80;19.50
79571;DHT22;69034;49.444;7.758;2023-07-13T11:57:03;39.60;17.10
79571;DHT22;69034;49.444;7.758;2023-07-13T12:01:15;42.80;15.00
79571;DHT22;69034;49.444;7.758;2023-07-13T12:05:18;41.90;16.40
79571;DHT22;69034;49.444;7.758;2023-07-13T12:09:20;44.60;15.10
79571;DHT22;69034;49.444;7.758;2023-07-13T12:13:26;41.80;15.10
79571;DHT22;69034;49.444;7.758;2023-07-13T12:17:27;39.40;16.10
79571;DHT22;69034;49.444;7.758;2023-07-13T12:21:39;38.10;16.80
79571;DHT22;69034;49.444;7.758;2023-07-13T12:25:40;38.70;16.70
79571;DHT22;69034;49.444;7.758;2023-07-13T12:30:32;37.80;16.90
79571;DHT22;69034;49.444;7.758;2023-07-13T12:34:20;36.50;17.50
79571;DHT22;69034;49.444;7.758;2023-07-13T12:38:21;35.50;18.10
79571;DHT22;69034;49.444;7.758;2023-07-13T12:42:27;35.10;18.20
79571;DHT22;69034;49.444;7.758;2023-07-13T12:46:28;35.80;17.90
79571;DHT22;69034;49.444;7.758;2023-07-13T12:50:38;35.90;17.90
79571;DHT22;69034;49.444;7.758;2023-07-13T12:54:41;35.40;18.20
79571;DHT22;69034;49.444;7.758;2023-07-13T12:58:42;34.80;18.50
79571;DHT22;69034;49.444;7.758;2023-07-13T13:02:44;34.50;18.50
79571;DHT22;69034;49.444;7.758;2023-07-13T13:06:45;34.40;18.40
79571;DHT22;69034;49.444;7.758;2023-07-13T13:10:46;34.60;18.30
79571;DHT22;69034;49.444;7.758;2023-07-13T13:14:47;35.80;17.50
79571;DHT22;69034;49.444;7.758;2023-07-13T13:18:53;35.40;17.90
79571;DHT22;69034;49.444;7.758;2023-07-13T13:22:54;34.90;18.40
79571;DHT22;69034;49.444;7.758;2023-07-13T13:26:55;34.60;18.60
79571;DHT22;69034;49.444;7.758;2023-07-13T13:31:00;34.30;18.70
79571;DHT22;69034;49.444;7.758;2023-07-13T13:35:01;34.00;19.00
79571;DHT22;69034;49.444;7.758;2023-07-13T13:39:02;34.60;18.60
79571;DHT22;69034;49.444;7.758;2023-07-13T13:43:04;36.30;17.80
79571;DHT22;69034;49.444;7.758;2023-07-13T13:47:22;40.00;16.50
79571;DHT22;69034;49.444;7.758;2023-07-13T13:51:26;38.70;16.00
79571;DHT22;69034;49.444;7.758;2023-07-13T13:55:26;39.00;16.00
79571;DHT22;69034;49.444;7.758;2023-07-13T13:59:28;38.20;15.60
79571;DHT22;69034;49.444;7.758;2023-07-13T14:03:29;37.50;15.90
79571;DHT22;69034;49.444;7.758;2023-07-13T14:07:30;37.00;17.60
79571;DHT22;69034;49.444;7.758;2023-07-13T14:11:31;37.10;16.30
79571;DHT22;69034;49.444;7.758;2023-07-13T14:15:32;37.10;16.30
79571;DHT22;69034;49.444;7.758;2023-07-13T14:19:34;36.80;16.10
79571;DHT22;69034;49.444;7.758;2023-07-13T14:23:34;36.40;16.10
79571;DHT22;69034;49.444;7.758;2023-07-13T14:27:35;36.50;16.20
79571;DHT22;69034;49.444;7.758;2023-07-13T14:31:35;37.00;16.00
79571;DHT22;69034;49.444;7.758;2023-07-13T14:35:36;36.20;16.70
79571;DHT22;69034;49.444;7.758;2023-07-13T14:39:38;36.30;16.80
79571;DHT22;69034;49.444;7.758;2023-07-13T14:43:38;37.70;16.00
79571;DHT22;69034;49.444;7.758;2023-07-13T14:47:39;38.00;15.80
79571;DHT22;69034;49.444;7.758;2023-07-13T14:51:40;37.80;15.90
79571;DHT22;69034;49.444;7.758;2023-07-13T14:55:40;37.80;16.10
79571;DHT22;69034;49.444;7.758;2023-07-13T14:59:43;38.10;15.90
79571;DHT22;69034;49.444;7.758;2023-07-13T15:03:48;40.80;14.70
79571;DHT22;69034;49.444;7.758;2023-07-13T15:07:51;41.80;13.90
79571;DHT22;69034;49.444;7.758;2023-07-13T15:11:55;39.80;14.80
79571;DHT22;69034;49.444;7.758;2023-07-13T15:15:56;37.30;15.80
79571;DHT22;69034;49.444;7.758;2023-07-13T15:19:57;35.40;16.90
79571;DHT22;69034;49.444;7.758;2023-07-13T15:23:59;34.50;17.50
79571;DHT22;69034;49.444;7.758;2023-07-13T15:28:00;33.90;17.90
79571;DHT22;69034;49.444;7.758;2023-07-13T15:32:02;33.40;18.30
79571;DHT22;69034;49.444;7.758;2023-07-13T15:36:03;33.10;18.70
79571;DHT22;69034;49.444;7.758;2023-07-13T15:40:05;33.50;18.60
79571;DHT22;69034;49.444;7.758;2023-07-13T15:44:31;36.80;16.80
79571;DHT22;69034;49.444;7.758;2023-07-13T15:48:31;39.50;15.60
79571;DHT22;69034;49.444;7.758;2023-07-13T15:52:33;41.10;15.10
79571;DHT22;69034;49.444;7.758;2023-07-13T15:56:36;41.90;14.50
79571;DHT22;69034;49.444;7.758;2023-07-13T16:00:37;42.60;14.30
79571;DHT22;69034;49.444;7.758;2023-07-13T16:04:41;43.10;13.80
79571;DHT22;69034;49.444;7.758;2023-07-13T16:08:43;42.50;14.00
79571;DHT22;69034;49.444;7.758;2023-07-13T16:12:44;43.00;13.30
79571;DHT22;69034;49.444;7.758;2023-07-13T16:16:45;42.70;13.30
79571;DHT22;69034;49.444;7.758;2023-07-13T16:20:47;42.60;13.00
79571;DHT22;69034;49.444;7.758;2023-07-13T16:24:48;41.10;13.40
79571;DHT22;69034;49.444;7.758;2023-07-13T16:28:50;39.10;14.20
79571;DHT22;69034;49.444;7.758;2023-07-13T16:32:58;37.80;14.80
79571;DHT22;69034;49.444;7.758;2023-07-13T16:37:22;37.10;15.10
79571;DHT22;69034;49.444;7.758;2023-07-13T16:41:24;37.10;15.50
79571;DHT22;69034;49.444;7.758;2023-07-13T16:45:27;37.90;15.30
79571;DHT22;69034;49.444;7.758;2023-07-13T16:49:34;37.10;15.70
79571;DHT22;69034;49.444;7.758;2023-07-13T16:53:37;35.80;16.30
79571;DHT22;69034;49.444;7.758;2023-07-13T16:57:39;36.00;16.40
79571;DHT22;69034;49.444;7.758;2023-07-13T17:01:51;35.90;16.50
79571;DHT22;69034;49.444;7.758;2023-07-13T17:05:53;34.90;17.10
79571;DHT22;69034;49.444;7.758;2023-07-13T17:09:55;35.70;16.70
79571;DHT22;69034;49.444;7.758;2023-07-13T17:13:55;34.80;17.10
79571;DHT22;69034;49.444;7.758;2023-07-13T17:17:57;35.70;16.70
79571;DHT22;69034;49.444;7.758;2023-07-13T17:22:05;35.10;17.00
79571;DHT22;69034;49.444;7.758;2023-07-13T17:26:09;34.80;17.20
79571;DHT22;69034;49.444;7.758;2023-07-13T17:30:21;34.30;17.60
79571;DHT22;69034;49.444;7.758;2023-07-13T17:34:23;33.70;18.00
79571;DHT22;69034;49.444;7.758;2023-07-13T17:38:37;33.20;18.50
79571;DHT22;69034;49.444;7.758;2023-07-13T17:42:40;33.00;18.70
79571;DHT22;69034;49.444;7.758;2023-07-13T17:46:40;32.90;18.90
79571;DHT22;69034;49.444;7.758;2023-07-13T17:50:42;32.50;19.10
79571;DHT22;69034;49.444;7.758;2023-07-13T17:54:44;32.00;19.60
79571;DHT22;69034;49.444;7.758;2023-07-13T17:58:45;31.50;19.90
79571;DHT22;69034;49.444;7.758;2023-07-13T18:02:47;31.10;24.20
79571;DHT22;69034;49.444;7.758;2023-07-13T18:06:48;30.80;24.60
79571;DHT22;69034;49.444;7.758;2023-07-13T18:11:01;30.40;25.00
79571;DHT22;69034;49.444;7.758;2023-07-13T18:15:03;30.10;25.40
79571;DHT22;69034;49.444;7.758;2023-07-13T18:19:06;29.80;25.70
79571;DHT22;69034;49.444;7.758;2023-07-13T18:23:23;29.60;26.00
79571;DHT22;69034;49.444;7.758;2023-07-13T18:27:25;29.60;26.00
79571;DHT22;69034;49.444;7.758;2023-07-13T18:31:32;29.30;26.40
79571;DHT22;69034;49.444;7.758;2023-07-13T18:35:33;29.00;26.70
79571;DHT22;69034;49.444;7.758;2023-07-13T18:39:35;28.90;26.80
79571;DHT22;69034;49.444;7.758;2023-07-13T18:43:35;28.80;27.10
79571;DHT22;69034;49.444;7.758;2023-07-13T18:47:36;28.60;27.40
79571;DHT22;69034;49.444;7.758;2023-07-13T18:51:37;28.40;27.60
79571;DHT22;69034;49.444;7.758;2023-07-13T18:55:37;28.10;28.00
79571;DHT22;69034;49.444;7.758;2023-07-13T18:59:41;27.80;28.40
79571;DHT22;69034;49.444;7.758;2023-07-13T19:03:45;27.50;28.60
79571;DHT22;69034;49.444;7.758;2023-07-13T19:07:47;27.30;28.90
79571;DHT22;69034;49.444;7.758;2023-07-13T19:11:47;27.20;29.20
79571;DHT22;69034;49.444;7.758;2023-07-13T19:15:48;27.00;29.50
79571;DHT22;69034;49.444;7.758;2023-07-13T19:19:49;26.80;29.80
79571;DHT22;69034;49.444;7.758;2023-07-13T19:23:51;26.60;30.10
79571;DHT22;69034;49.444;7.758;2023-07-13T19:27:58;26.50;30.40
79571;DHT22;69034;49.444;7.758;2023-07-13T19:32:01;26.30;30.60
79571;DHT22;69034;49.444;7.758;2023-07-13T19:36:02;26.20;30.80
79571;DHT22;69034;49.444;7.758;2023-07-13T19:40:26;26.10;31.10
79571;DHT22;69034;49.444;7.758;2023-07-13T19:44:25;26.00;31.40
79571;DHT22;69034;49.444;7.758;2023-07-13T19:48:27;25.80;31.60
79571;DHT22;69034;49.444;7.758;2023-07-13T19:52:28;25.60;32.00
79571;DHT22;69034;49.444;7.758;2023-07-13T19:56:30;25.60;32.10
79571;DHT22;69034;49.444;7.758;2023-07-13T20:00:31;25.50;32.40
79571;DHT22;69034;49.444;7.758;2023-07-13T20:04:32;25.30;32.60
79571;DHT22;69034;49.444;7.758;2023-07-13T20:08:33;25.30;32.80
79571;DHT22;69034;49.444;7.758;2023-07-13T20:12:36;25.20;32.90
79571;DHT22;69034;49.444;7.758;2023-07-13T20:16:39;25.10;33.10
79571;DHT22;69034;49.444;7.758;2023-07-13T20:20:41;25.00;33.20
79571;DHT22;69034;49.444;7.758;2023-07-13T20:24:45;25.00;33.40
79571;DHT22;69034;49.444;7.758;2023-07-13T20:28:46;24.90;33.80
79571;DHT22;69034;49.444;7.758;2023-07-13T20:32:47;25.00;34.40
79571;DHT22;69034;49.444;7.758;2023-07-13T20:36:48;25.10;34.60
79571;DHT22;69034;49.444;7.758;2023-07-13T20:40:49;25.30;34.70
79571;DHT22;69034;49.444;7.758;2023-07-13T20:44:52;25.30;34.70
79571;DHT22;69034;49.444;7.758;2023-07-13T20:48:52;25.40;34.70
79571;DHT22;69034;49.444;7.758;2023-07-13T20:52:55;25.40;35.00
79571;DHT22;69034;49.444;7.758;2023-07-13T20:56:56;25.40;35.00
79571;DHT22;69034;49.444;7.758;2023-07-13T21:00:57;25.40;35.00
79571;DHT22;69034;49.444;7.758;2023-07-13T21:09:17;25.40;35.40
79571;DHT22;69034;49.444;7.758;2023-07-13T21:13:18;25.40;35.30
79571;DHT22;69034;49.444;7.758;2023-07-13T21:17:21;25.40;35.40
79571;DHT22;69034;49.444;7.758;2023-07-13T21:21:24;25.40;35.60
79571;DHT22;69034;49.444;7.758;2023-07-13T21:25:27;25.30;35.70
79571;DHT22;69034;49.444;7.758;2023-07-13T21:29:28;25.30;35.90
79571;DHT22;69034;49.444;7.758;2023-07-13T21:33:29;25.00;36.10
79571;DHT22;69034;49.444;7.758;2023-07-13T21:37:31;24.80;36.30
79571;DHT22;69034;49.444;7.758;2023-07-13T21:41:33;24.60;36.60
79571;DHT22;69034;49.444;7.758;2023-07-13T21:45:34;24.50;36.80
79571;DHT22;69034;49.444;7.758;2023-07-13T21:49:35;24.40;37.10
79571;DHT22;69034;49.444;7.758;2023-07-13T21:53:36;24.30;37.40
79571;DHT22;69034;49.444;7.758;2023-07-13T21:57:38;24.10;37.80
79571;DHT22;69034;49.444;7.758;2023-07-13T22:01:39;24.00;38.00
79571;DHT22;69034;49.444;7.758;2023-07-13T22:05:40;23.90;38.20
79571;DHT22;69034;49.444;7.758;2023-07-13T22:09:41;23.90;38.40
79571;DHT22;69034;49.444;7.758;2023-07-13T22:13:42;23.80;38.60
79571;DHT22;69034;49.444;7.758;2023-07-13T22:17:47;23.80;38.70
79571;DHT22;69034;49.444;7.758;2023-07-13T22:21:48;23.60;39.10
79571;DHT22;69034;49.444;7.758;2023-07-13T22:25:52;23.40;39.30
79571;DHT22;69034;49.444;7.758;2023-07-13T22:29:53;23.20;39.80
79571;DHT22;69034;49.444;7.758;2023-07-13T22:33:56;23.10;40.00
79571;DHT22;69034;49.444;7.758;2023-07-13T22:37:57;22.90;40.30
79571;DHT22;69034;49.444;7.758;2023-07-13T22:41:59;22.80;40.60
79571;DHT22;69034;49.444;7.758;2023-07-13T22:46:02;22.60;40.90
79571;DHT22;69034;49.444;7.758;2023-07-13T22:50:15;22.50;41.00
79571;DHT22;69034;49.444;7.758;2023-07-13T22:54:16;22.40;41.30
79571;DHT22;69034;49.444;7.758;2023-07-13T22:58:18;22.30;41.60
79571;DHT22;69034;49.444;7.758;2023-07-13T23:02:19;22.20;41.90
79571;DHT22;69034;49.444;7.758;2023-07-13T23:06:28;22.10;42.10
79571;DHT22;69034;49.444;7.758;2023-07-13T23:10:29;22.00;42.40
79571;DHT22;69034;49.444;7.758;2023-07-13T23:14:30;21.90;42.60
79571;DHT22;69034;49.444;7.758;2023-07-13T23:18:32;21.90;42.70
79571;DHT22;69034;49.444;7.758;2023-07-13T23:22:32;21.90;42.70
79571;DHT22;69034;49.444;7.758;2023-07-13T23:26:33;21.90;42.90
79571;DHT22;69034;49.444;7.758;2023-07-13T23:30:34;21.80;43.00
79571;DHT22;69034;49.444;7.758;2023-07-13T23:34:35;21.70;43.30
79571;DHT22;69034;49.444;7.758;2023-07-13T23:38:36;21.60;43.60
79571;DHT22;69034;49.444;7.758;2023-07-13T23:42:37;21.50;43.80
79571;DHT22;69034;49.444;7.758;2023-07-13T23:46:44;21.50;43.80
79571;DHT22;69034;49.444;7.758;2023-07-13T23:50:46;21.50;44.00
79571;DHT22;69034;49.444;7.758;2023-07-13T23:54:51;21.40;44.30
79571;DHT22;69034;49.444;7.758;2023-07-13T23:58:53;21.30;44.60
